sensor_id;sensor_type;location;lat;lon;timestamp;temperature;humidity
8008;DHT22;4049;49.468;11.200;2024-02-21T00:01:38;6.50;99.90
8008;DHT22;4049;49.468;11.200;2024-02-21T00:04:05;6.50;99.90
8008;DHT22;4049;49.468;11.200;2024-02-21T00:06:32;6.50;99.90
8008;DHT22;4049;49.468;11.200;2024-02-21T00:08:59;6.50;99.90
8008;DHT22;4049;49.468;11.200;2024-02-21T00:11:26;6.50;99.90
8008;DHT22;4049;49.468;11.200;2024-02-21T00:13:54;6.50;99.90
8008;DHT22;4049;49.468;11.200;2024-02-21T00:16:21;6.60;99.90
8008;DHT22;4049;49.468;11.200;2024-02-21T00:18:48;6.50;99.90
8008;DHT22;4049;49.468;11.200;2024-02-21T00:21:15;6.60;99.90
8008;DHT22;4049;49.468;11.200;2024-02-21T00:23:43;6.50;99.90
8008;DHT22;4049;49.468;11.200;2024-02-21T00:26:11;6.50;99.90
8008;DHT22;4049;49.468;11.200;2024-02-21T00:28:38;6.50;99.90
8008;DHT22;4049;49.468;11.200;2024-02-21T00:31:06;6.50;99.90
8008;DHT22;4049;49.468;11.200;2024-02-21T00:33:33;6.50;99.90
8008;DHT22;4049;49.468;11.200;2024-02-21T00:36:00;6.50;99.90
8008;DHT22;4049;49.468;11.200;2024-02-21T00:38:27;6.50;99.90
8008;DHT22;4049;49.468;11.200;2024-02-21T00:40:53;6.50;99.90
8008;DHT22;4049;49.468;11.200;2024-02-21T00:43:20;6.50;99.90
8008;DHT22;4049;49.468;11.200;2024-02-21T00:45:49;6.50;99.90
8008;DHT22;4049;49.468;11.200;2024-02-21T00:48:17;6.50;99.90
8008;DHT22;4049;49.468;11.200;2024-02-21T00:50:44;6.50;99.90
8008;DHT22;4049;49.468;11.200;2024-02-21T00:53:11;6.50;99.90
8008;DHT22;4049;49.468;11.200;2024-02-21T00:55:38;6.50;99.90
8008;DHT22;4049;49.468;11.200;2024-02-21T00:58:05;6.50;99.90
8008;DHT22;4049;49.468;11.200;2024-02-21T01:00:32;6.50;99.90
8008;DHT22;4049;49.468;11.200;2024-02-21T01:02:59;6.40;99.90
8008;DHT22;4049;49.468;11.200;2024-02-21T01:05:28;6.50;99.90
8008;DHT22;4049;49.468;11.200;2024-02-21T01:07:55;6.40;99.90
8008;DHT22;4049;49.468;11.200;2024-02-21T01:10:21;6.40;99.90
8008;DHT22;4049;49.468;11.200;2024-02-21T01:12:49;6.40;99.90
8008;DHT22;4049;49.468;11.200;2024-02-21T01:15:16;6.40;99.90
8008;DHT22;4049;49.468;11.200;2024-02-21T01:17:43;6.30;99.90
8008;DHT22;4049;49.468;11.200;2024-02-21T01:20:10;6.40;99.90
8008;DHT22;4049;49.468;11.200;2024-02-21T01:22:39;6.30;99.90
8008;DHT22;4049;49.468;11.200;2024-02-21T01:25:07;6.30;99.90
8008;DHT22;4049;49.468;11.200;2024-02-21T01:27:34;6.30;99.90
8008;DHT22;4049;49.468;11.200;2024-02-21T01:30:03;6.30;99.90
8008;DHT22;4049;49.468;11.200;2024-02-21T01:32:31;6.30;99.90
8008;DHT22;4049;49.468;11.200;2024-02-21T01:34:58;6.30;99.90
8008;DHT22;4049;49.468;11.200;2024-02-21T01:37:25;6.30;99.90
8008;DHT22;4049;49.468;11.200;2024-02-21T01:39:53;6.30;99.90
8008;DHT22;4049;49.468;11.200;2024-02-21T01:42:20;6.20;99.90
8008;DHT22;4049;49.468;11.200;2024-02-21T01:44:47;6.20;99.90
8008;DHT22;4049;49.468;11.200;2024-02-21T01:47:14;6.30;99.90
8008;DHT22;4049;49.468;11.200;2024-02-21T01:49:41;6.30;99.90
8008;DHT22;4049;49.468;11.200;2024-02-21T01:52:08;6.20;99.90
8008;DHT22;4049;49.468;11.200;2024-02-21T01:54:36;6.30;99.90
8008;DHT22;4049;49.468;11.200;2024-02-21T01:57:05;6.30;99.90
8008;DHT22;4049;49.468;11.200;2024-02-21T01:59:32;6.30;99.90
8008;DHT22;4049;49.468;11.200;2024-02-21T02:02:00;6.30;99.90
8008;DHT22;4049;49.468;11.200;2024-02-21T02:04:27;6.30;99.90
8008;DHT22;4049;49.468;11.200;2024-02-21T02:06:54;6.30;99.90
8008;DHT22;4049;49.468;11.200;2024-02-21T02:09:21;6.30;99.90
8008;DHT22;4049;49.468;11.200;2024-02-21T02:11:48;6.30;99.90
8008;DHT22;4049;49.468;11.200;2024-02-21T02:14:17;6.30;99.90
8008;DHT22;4049;49.468;11.200;2024-02-21T02:16:46;6.30;99.90
8008;DHT22;4049;49.468;11.200;2024-02-21T02:19:14;6.30;99.90
8008;DHT22;4049;49.468;11.200;2024-02-21T02:21:45;6.30;99.90
8008;DHT22;4049;49.468;11.200;2024-02-21T02:24:14;6.30;99.90
8008;DHT22;4049;49.468;11.200;2024-02-21T02:26:41;6.30;99.90
8008;DHT22;4049;49.468;11.200;2024-02-21T02:29:08;6.30;99.90
8008;DHT22;4049;49.468;11.200;2024-02-21T02:31:35;6.30;99.90
8008;DHT22;4049;49.468;11.200;2024-02-21T02:34:03;6.30;99.90
8008;DHT22;4049;49.468;11.200;2024-02-21T02:36:31;6.30;99.90
8008;DHT22;4049;49.468;11.200;2024-02-21T02:38:59;6.30;99.90
8008;DHT22;4049;49.468;11.200;2024-02-21T02:41:27;6.30;99.90
8008;DHT22;4049;49.468;11.200;2024-02-21T02:43:54;6.30;99.90
8008;DHT22;4049;49.468;11.200;2024-02-21T02:46:21;6.30;99.90
8008;DHT22;4049;49.468;11.200;2024-02-21T02:48:48;6.30;99.90
8008;DHT22;4049;49.468;11.200;2024-02-21T02:51:15;6.30;99.90
8008;DHT22;4049;49.468;11.200;2024-02-21T02:53:41;6.30;99.90
8008;DHT22;4049;49.468;11.200;2024-02-21T02:56:14;6.30;99.90
8008;DHT22;4049;49.468;11.200;2024-02-21T02:58:42;6.30;99.90
8008;DHT22;4049;49.468;11.200;2024-02-21T03:01:09;6.30;99.90
8008;DHT22;4049;49.468;11.200;2024-02-21T03:03:36;6.30;99.90
8008;DHT22;4049;49.468;11.200;2024-02-21T03:06:03;6.30;99.90
8008;DHT22;4049;49.468;11.200;2024-02-21T03:08:30;6.30;99.90
8008;DHT22;4049;49.468;11.200;2024-02-21T03:10:58;6.30;99.90
8008;DHT22;4049;49.468;11.200;2024-02-21T03:13:25;6.30;99.90
8008;DHT22;4049;49.468;11.200;2024-02-21T03:15:53;6.10;99.90
8008;DHT22;4049;49.468;11.200;2024-02-21T03:18:20;6.30;99.90
8008;DHT22;4049;49.468;11.200;2024-02-21T03:20:47;6.20;99.90
8008;DHT22;4049;49.468;11.200;2024-02-21T03:23:14;6.20;99.90
8008;DHT22;4049;49.468;11.200;2024-02-21T03:25:41;6.20;99.90
8008;DHT22;4049;49.468;11.200;2024-02-21T03:28:08;6.20;99.90
8008;DHT22;4049;49.468;11.200;2024-02-21T03:30:35;6.10;99.90
8008;DHT22;4049;49.468;11.200;2024-02-21T03:33:03;6.10;99.90
8008;DHT22;4049;49.468;11.200;2024-02-21T03:35:30;6.10;99.90
8008;DHT22;4049;49.468;11.200;2024-02-21T03:37:57;6.10;99.90
8008;DHT22;4049;49.468;11.200;2024-02-21T03:40:24;6.10;99.90
8008;DHT22;4049;49.468;11.200;2024-02-21T03:42:51;6.10;99.90
8008;DHT22;4049;49.468;11.200;2024-02-21T03:45:18;6.10;99.90
8008;DHT22;4049;49.468;11.200;2024-02-21T03:47:45;6.10;99.90
8008;DHT22;4049;49.468;11.200;2024-02-21T03:50:13;6.10;99.90
8008;DHT22;4049;49.468;11.200;2024-02-21T03:52:40;6.10;99.90
8008;DHT22;4049;49.468;11.200;2024-02-21T03:55:07;6.10;99.90
8008;DHT22;4049;49.468;11.200;2024-02-21T03:57:34;6.10;99.90
8008;DHT22;4049;49.468;11.200;2024-02-21T04:00:01;6.10;99.90
8008;DHT22;4049;49.468;11.200;2024-02-21T04:02:29;6.10;99.90
8008;DHT22;4049;49.468;11.200;2024-02-21T04:04:56;6.20;99.90
8008;DHT22;4049;49.468;11.200;2024-02-21T04:07:24;6.20;99.90
8008;DHT22;4049;49.468;11.200;2024-02-21T04:09:51;6.20;99.90
8008;DHT22;4049;49.468;11.200;2024-02-21T04:12:18;6.20;99.90
8008;DHT22;4049;49.468;11.200;2024-02-21T04:14:45;6.20;99.90
8008;DHT22;4049;49.468;11.200;2024-02-21T04:17:12;6.20;99.90
8008;DHT22;4049;49.468;11.200;2024-02-21T04:19:38;6.20;99.90
8008;DHT22;4049;49.468;11.200;2024-02-21T04:22:05;6.20;99.90
8008;DHT22;4049;49.468;11.200;2024-02-21T04:24:33;6.20;99.90
8008;DHT22;4049;49.468;11.200;2024-02-21T04:27:00;6.10;99.90
8008;DHT22;4049;49.468;11.200;2024-02-21T04:29:27;6.20;99.90
8008;DHT22;4049;49.468;11.200;2024-02-21T04:31:54;6.20;99.90
8008;DHT22;4049;49.468;11.200;2024-02-21T04:34:21;6.10;99.90
8008;DHT22;4049;49.468;11.200;2024-02-21T04:36:48;6.10;99.90
8008;DHT22;4049;49.468;11.200;2024-02-21T04:39:14;6.10;99.90
8008;DHT22;4049;49.468;11.200;2024-02-21T04:41:43;6.10;99.90
8008;DHT22;4049;49.468;11.200;2024-02-21T04:44:09;6.10;99.90
8008;DHT22;4049;49.468;11.200;2024-02-21T04:46:36;6.10;99.90
8008;DHT22;4049;49.468;11.200;2024-02-21T04:49:03;6.10;99.90
8008;DHT22;4049;49.468;11.200;2024-02-21T04:51:30;6.10;99.90
8008;DHT22;4049;49.468;11.200;2024-02-21T04:53:57;6.20;99.90
8008;DHT22;4049;49.468;11.200;2024-02-21T04:56:24;6.10;99.90
8008;DHT22;4049;49.468;11.200;2024-02-21T04:58:52;6.10;99.90
8008;DHT22;4049;49.468;11.200;2024-02-21T05:01:19;6.00;99.90
8008;DHT22;4049;49.468;11.200;2024-02-21T05:03:46;6.00;99.90
8008;DHT22;4049;49.468;11.200;2024-02-21T05:06:13;6.00;99.90
8008;DHT22;4049;49.468;11.200;2024-02-21T05:08:40;6.00;99.90
8008;DHT22;4049;49.468;11.200;2024-02-21T05:11:07;5.90;99.90
8008;DHT22;4049;49.468;11.200;2024-02-21T05:13:33;5.90;99.90
8008;DHT22;4049;49.468;11.200;2024-02-21T05:16:02;5.90;99.90
8008;DHT22;4049;49.468;11.200;2024-02-21T05:18:29;5.90;99.90
8008;DHT22;4049;49.468;11.200;2024-02-21T05:20:56;5.90;99.90
8008;DHT22;4049;49.468;11.200;2024-02-21T05:23:23;5.90;99.90
8008;DHT22;4049;49.468;11.200;2024-02-21T05:25:49;5.90;99.90
8008;DHT22;4049;49.468;11.200;2024-02-21T05:28:16;5.90;99.90
8008;DHT22;4049;49.468;11.200;2024-02-21T05:30:43;5.90;99.90
8008;DHT22;4049;49.468;11.200;2024-02-21T05:33:12;5.90;99.90
8008;DHT22;4049;49.468;11.200;2024-02-21T05:35:46;5.90;99.90
8008;DHT22;4049;49.468;11.200;2024-02-21T05:38:13;5.90;99.90
8008;DHT22;4049;49.468;11.200;2024-02-21T05:40:40;5.80;99.90
8008;DHT22;4049;49.468;11.200;2024-02-21T05:43:07;5.90;99.90
8008;DHT22;4049;49.468;11.200;2024-02-21T05:45:35;5.80;99.90
8008;DHT22;4049;49.468;11.200;2024-02-21T05:48:02;5.80;99.90
8008;DHT22;4049;49.468;11.200;2024-02-21T05:50:30;5.80;99.90
8008;DHT22;4049;49.468;11.200;2024-02-21T05:52:58;5.70;99.90
8008;DHT22;4049;49.468;11.200;2024-02-21T05:55:25;5.70;99.90
8008;DHT22;4049;49.468;11.200;2024-02-21T05:57:53;5.60;99.90
8008;DHT22;4049;49.468;11.200;2024-02-21T06:00:21;5.60;99.90
8008;DHT22;4049;49.468;11.200;2024-02-21T06:02:47;5.60;99.90
8008;DHT22;4049;49.468;11.200;2024-02-21T06:05:15;5.60;99.90
8008;DHT22;4049;49.468;11.200;2024-02-21T06:07:43;5.30;99.90
8008;DHT22;4049;49.468;11.200;2024-02-21T06:10:10;5.50;99.90
8008;DHT22;4049;49.468;11.200;2024-02-21T06:12:37;5.50;99.90
8008;DHT22;4049;49.468;11.200;2024-02-21T06:15:04;5.50;99.90
8008;DHT22;4049;49.468;11.200;2024-02-21T06:17:31;5.40;99.90
8008;DHT22;4049;49.468;11.200;2024-02-21T06:19:58;5.40;99.90
8008;DHT22;4049;49.468;11.200;2024-02-21T06:22:25;5.30;99.90
8008;DHT22;4049;49.468;11.200;2024-02-21T06:24:53;5.30;99.90
8008;DHT22;4049;49.468;11.200;2024-02-21T06:27:20;5.30;99.90
8008;DHT22;4049;49.468;11.200;2024-02-21T06:29:47;5.20;99.90
8008;DHT22;4049;49.468;11.200;2024-02-21T06:32:14;5.20;99.90
8008;DHT22;4049;49.468;11.200;2024-02-21T06:34:41;5.10;99.90
8008;DHT22;4049;49.468;11.200;2024-02-21T06:37:08;5.10;99.90
8008;DHT22;4049;49.468;11.200;2024-02-21T06:39:35;5.10;99.90
8008;DHT22;4049;49.468;11.200;2024-02-21T06:42:04;5.00;99.90
8008;DHT22;4049;49.468;11.200;2024-02-21T06:44:31;5.00;99.90
8008;DHT22;4049;49.468;11.200;2024-02-21T06:47:02;5.00;99.90
8008;DHT22;4049;49.468;11.200;2024-02-21T06:49:29;4.90;99.90
8008;DHT22;4049;49.468;11.200;2024-02-21T06:51:55;5.00;99.90
8008;DHT22;4049;49.468;11.200;2024-02-21T06:54:22;4.90;99.90
8008;DHT22;4049;49.468;11.200;2024-02-21T06:56:49;5.00;99.90
8008;DHT22;4049;49.468;11.200;2024-02-21T06:59:17;5.00;99.90
8008;DHT22;4049;49.468;11.200;2024-02-21T07:01:45;5.00;99.90
8008;DHT22;4049;49.468;11.200;2024-02-21T07:04:12;5.10;99.90
8008;DHT22;4049;49.468;11.200;2024-02-21T07:06:39;5.10;99.90
8008;DHT22;4049;49.468;11.200;2024-02-21T07:09:06;5.10;99.90
8008;DHT22;4049;49.468;11.200;2024-02-21T07:11:33;5.20;99.90
8008;DHT22;4049;49.468;11.200;2024-02-21T07:13:59;5.20;99.90
8008;DHT22;4049;49.468;11.200;2024-02-21T07:16:28;5.30;99.90
8008;DHT22;4049;49.468;11.200;2024-02-21T07:18:55;5.30;99.90
8008;DHT22;4049;49.468;11.200;2024-02-21T07:21:22;5.30;99.90
8008;DHT22;4049;49.468;11.200;2024-02-21T07:23:49;5.30;99.90
8008;DHT22;4049;49.468;11.200;2024-02-21T07:26:16;5.30;99.90
8008;DHT22;4049;49.468;11.200;2024-02-21T07:28:43;5.30;99.90
8008;DHT22;4049;49.468;11.200;2024-02-21T07:31:10;5.40;99.90
8008;DHT22;4049;49.468;11.200;2024-02-21T07:33:38;5.40;99.90
8008;DHT22;4049;49.468;11.200;2024-02-21T07:36:06;5.40;99.90
8008;DHT22;4049;49.468;11.200;2024-02-21T07:38:33;5.50;99.90
8008;DHT22;4049;49.468;11.200;2024-02-21T07:41:00;5.50;99.90
8008;DHT22;4049;49.468;11.200;2024-02-21T07:43:27;5.60;99.90
8008;DHT22;4049;49.468;11.200;2024-02-21T07:45:54;5.60;99.90
8008;DHT22;4049;49.468;11.200;2024-02-21T07:48:21;5.60;99.90
8008;DHT22;4049;49.468;11.200;2024-02-21T07:50:51;5.70;99.90
8008;DHT22;4049;49.468;11.200;2024-02-21T07:53:20;5.70;99.90
8008;DHT22;4049;49.468;11.200;2024-02-21T07:55:46;5.80;99.90
8008;DHT22;4049;49.468;11.200;2024-02-21T07:58:13;5.90;99.90
8008;DHT22;4049;49.468;11.200;2024-02-21T08:00:40;6.00;99.90
8008;DHT22;4049;49.468;11.200;2024-02-21T08:03:07;6.10;99.90
8008;DHT22;4049;49.468;11.200;2024-02-21T08:05:34;6.20;99.90
8008;DHT22;4049;49.468;11.200;2024-02-21T08:08:03;6.30;99.90
8008;DHT22;4049;49.468;11.200;2024-02-21T08:10:30;6.40;99.90
8008;DHT22;4049;49.468;11.200;2024-02-21T08:12:57;6.40;99.90
8008;DHT22;4049;49.468;11.200;2024-02-21T08:15:24;6.50;99.90
8008;DHT22;4049;49.468;11.200;2024-02-21T08:17:54;6.50;99.90
8008;DHT22;4049;49.468;11.200;2024-02-21T08:20:24;6.60;99.90
8008;DHT22;4049;49.468;11.200;2024-02-21T08:22:51;6.60;99.90
8008;DHT22;4049;49.468;11.200;2024-02-21T08:25:19;6.60;99.90
8008;DHT22;4049;49.468;11.200;2024-02-21T08:27:46;6.70;99.90
8008;DHT22;4049;49.468;11.200;2024-02-21T08:30:13;6.70;99.90
8008;DHT22;4049;49.468;11.200;2024-02-21T08:32:40;6.70;99.90
8008;DHT22;4049;49.468;11.200;2024-02-21T08:35:08;6.80;99.90
8008;DHT22;4049;49.468;11.200;2024-02-21T08:37:35;6.80;99.90
8008;DHT22;4049;49.468;11.200;2024-02-21T08:40:02;6.90;99.90
8008;DHT22;4049;49.468;11.200;2024-02-21T08:42:35;6.90;99.90
8008;DHT22;4049;49.468;11.200;2024-02-21T08:45:02;7.00;99.90
8008;DHT22;4049;49.468;11.200;2024-02-21T08:47:29;7.10;99.90
8008;DHT22;4049;49.468;11.200;2024-02-21T08:49:56;7.20;99.90
8008;DHT22;4049;49.468;11.200;2024-02-21T08:52:24;7.20;99.90
8008;DHT22;4049;49.468;11.200;2024-02-21T08:54:50;7.30;99.90
8008;DHT22;4049;49.468;11.200;2024-02-21T08:57:19;7.40;99.90
8008;DHT22;4049;49.468;11.200;2024-02-21T08:59:47;7.50;99.90
8008;DHT22;4049;49.468;11.200;2024-02-21T09:02:14;7.60;99.90
8008;DHT22;4049;49.468;11.200;2024-02-21T09:04:42;7.60;99.90
8008;DHT22;4049;49.468;11.200;2024-02-21T09:07:09;7.60;99.90
8008;DHT22;4049;49.468;11.200;2024-02-21T09:09:36;7.70;99.90
8008;DHT22;4049;49.468;11.200;2024-02-21T09:12:04;7.70;99.90
8008;DHT22;4049;49.468;11.200;2024-02-21T09:14:32;7.80;99.90
8008;DHT22;4049;49.468;11.200;2024-02-21T09:17:00;7.80;99.90
8008;DHT22;4049;49.468;11.200;2024-02-21T09:19:27;7.90;99.90
8008;DHT22;4049;49.468;11.200;2024-02-21T09:21:54;8.00;99.90
8008;DHT22;4049;49.468;11.200;2024-02-21T09:24:20;8.00;99.90
8008;DHT22;4049;49.468;11.200;2024-02-21T09:26:47;8.00;99.90
8008;DHT22;4049;49.468;11.200;2024-02-21T09:29:15;8.10;99.90
8008;DHT22;4049;49.468;11.200;2024-02-21T09:31:42;8.10;99.90
8008;DHT22;4049;49.468;11.200;2024-02-21T09:34:10;8.10;99.90
8008;DHT22;4049;49.468;11.200;2024-02-21T09:36:37;8.10;99.90
8008;DHT22;4049;49.468;11.200;2024-02-21T09:39:06;8.10;99.90
8008;DHT22;4049;49.468;11.200;2024-02-21T09:41:36;8.20;99.90
8008;DHT22;4049;49.468;11.200;2024-02-21T09:44:05;8.20;99.90
8008;DHT22;4049;49.468;11.200;2024-02-21T09:46:41;8.30;99.90
8008;DHT22;4049;49.468;11.200;2024-02-21T09:49:20;8.30;99.90
8008;DHT22;4049;49.468;11.200;2024-02-21T09:51:54;8.40;99.90
8008;DHT22;4049;49.468;11.200;2024-02-21T09:54:22;8.60;99.90
8008;DHT22;4049;49.468;11.200;2024-02-21T09:56:49;8.60;99.90
8008;DHT22;4049;49.468;11.200;2024-02-21T09:59:16;8.70;99.90
8008;DHT22;4049;49.468;11.200;2024-02-21T10:01:43;8.80;99.90
8008;DHT22;4049;49.468;11.200;2024-02-21T10:04:13;8.90;99.90
8008;DHT22;4049;49.468;11.200;2024-02-21T10:06:41;9.00;99.90
8008;DHT22;4049;49.468;11.200;2024-02-21T10:09:08;9.00;99.90
8008;DHT22;4049;49.468;11.200;2024-02-21T10:11:35;9.10;99.90
8008;DHT22;4049;49.468;11.200;2024-02-21T10:14:06;9.20;99.90
8008;DHT22;4049;49.468;11.200;2024-02-21T10:16:33;9.30;99.90
8008;DHT22;4049;49.468;11.200;2024-02-21T10:19:00;9.40;99.90
8008;DHT22;4049;49.468;11.200;2024-02-21T10:21:30;9.50;99.90
8008;DHT22;4049;49.468;11.200;2024-02-21T10:23:57;9.60;99.90
8008;DHT22;4049;49.468;11.200;2024-02-21T10:26:24;9.60;99.90
8008;DHT22;4049;49.468;11.200;2024-02-21T10:28:50;9.70;99.90
8008;DHT22;4049;49.468;11.200;2024-02-21T10:31:23;9.80;99.90
8008;DHT22;4049;49.468;11.200;2024-02-21T10:33:54;9.80;99.90
8008;DHT22;4049;49.468;11.200;2024-02-21T10:36:21;9.80;99.90
8008;DHT22;4049;49.468;11.200;2024-02-21T10:38:50;9.90;99.90
8008;DHT22;4049;49.468;11.200;2024-02-21T10:41:19;9.90;99.90
8008;DHT22;4049;49.468;11.200;2024-02-21T10:43:49;10.00;99.90
8008;DHT22;4049;49.468;11.200;2024-02-21T10:46:19;10.10;99.90
8008;DHT22;4049;49.468;11.200;2024-02-21T10:48:47;10.20;99.90
8008;DHT22;4049;49.468;11.200;2024-02-21T10:51:16;10.20;99.90
8008;DHT22;4049;49.468;11.200;2024-02-21T10:53:45;10.30;99.90
8008;DHT22;4049;49.468;11.200;2024-02-21T10:56:22;10.30;99.90
8008;DHT22;4049;49.468;11.200;2024-02-21T10:58:50;10.40;99.90
8008;DHT22;4049;49.468;11.200;2024-02-21T11:01:18;10.60;99.90
8008;DHT22;4049;49.468;11.200;2024-02-21T11:03:46;10.70;99.90
8008;DHT22;4049;49.468;11.200;2024-02-21T11:06:15;10.70;99.90
8008;DHT22;4049;49.468;11.200;2024-02-21T11:08:42;10.80;99.90
8008;DHT22;4049;49.468;11.200;2024-02-21T11:11:12;10.90;99.90
8008;DHT22;4049;49.468;11.200;2024-02-21T11:13:44;10.90;99.90
8008;DHT22;4049;49.468;11.200;2024-02-21T11:16:20;10.90;99.90
8008;DHT22;4049;49.468;11.200;2024-02-21T11:18:48;10.90;99.90
8008;DHT22;4049;49.468;11.200;2024-02-21T11:21:15;10.90;99.90
8008;DHT22;4049;49.468;11.200;2024-02-21T11:23:41;10.90;99.90
8008;DHT22;4049;49.468;11.200;2024-02-21T11:26:09;11.00;99.90
8008;DHT22;4049;49.468;11.200;2024-02-21T11:28:36;11.10;99.90
8008;DHT22;4049;49.468;11.200;2024-02-21T11:31:09;11.10;99.90
8008;DHT22;4049;49.468;11.200;2024-02-21T11:33:39;11.10;99.90
8008;DHT22;4049;49.468;11.200;2024-02-21T11:36:06;11.20;99.90
8008;DHT22;4049;49.468;11.200;2024-02-21T11:38:33;11.30;99.90
8008;DHT22;4049;49.468;11.200;2024-02-21T11:41:03;11.40;99.90
8008;DHT22;4049;49.468;11.200;2024-02-21T11:43:34;11.40;99.90
8008;DHT22;4049;49.468;11.200;2024-02-21T11:46:01;11.50;99.90
8008;DHT22;4049;49.468;11.200;2024-02-21T11:48:31;11.60;99.90
8008;DHT22;4049;49.468;11.200;2024-02-21T11:50:58;11.70;99.90
8008;DHT22;4049;49.468;11.200;2024-02-21T11:53:26;11.90;99.90
8008;DHT22;4049;49.468;11.200;2024-02-21T11:55:56;12.00;99.90
8008;DHT22;4049;49.468;11.200;2024-02-21T11:58:23;12.10;99.90
8008;DHT22;4049;49.468;11.200;2024-02-21T12:00:50;12.10;99.90
8008;DHT22;4049;49.468;11.200;2024-02-21T12:03:18;12.20;99.90
8008;DHT22;4049;49.468;11.200;2024-02-21T12:05:47;12.30;99.90
8008;DHT22;4049;49.468;11.200;2024-02-21T12:08:13;12.30;99.90
8008;DHT22;4049;49.468;11.200;2024-02-21T12:10:42;12.30;99.90
8008;DHT22;4049;49.468;11.200;2024-02-21T12:13:10;12.30;99.90
8008;DHT22;4049;49.468;11.200;2024-02-21T12:15:38;12.30;99.90
8008;DHT22;4049;49.468;11.200;2024-02-21T12:18:05;12.40;99.90
8008;DHT22;4049;49.468;11.200;2024-02-21T12:20:32;12.40;99.90
8008;DHT22;4049;49.468;11.200;2024-02-21T12:23:03;12.40;99.90
8008;DHT22;4049;49.468;11.200;2024-02-21T12:25:30;12.40;99.90
8008;DHT22;4049;49.468;11.200;2024-02-21T12:27:57;12.40;99.90
8008;DHT22;4049;49.468;11.200;2024-02-21T12:30:25;12.50;99.90
8008;DHT22;4049;49.468;11.200;2024-02-21T12:32:52;12.50;99.90
8008;DHT22;4049;49.468;11.200;2024-02-21T12:35:19;12.50;99.90
8008;DHT22;4049;49.468;11.200;2024-02-21T12:37:45;12.50;99.90
8008;DHT22;4049;49.468;11.200;2024-02-21T12:40:14;12.50;99.90
8008;DHT22;4049;49.468;11.200;2024-02-21T12:42:41;12.50;99.90
8008;DHT22;4049;49.468;11.200;2024-02-21T12:45:08;12.40;99.90
8008;DHT22;4049;49.468;11.200;2024-02-21T12:47:35;12.40;99.90
8008;DHT22;4049;49.468;11.200;2024-02-21T12:50:02;12.40;99.90
8008;DHT22;4049;49.468;11.200;2024-02-21T12:52:32;12.50;99.90
8008;DHT22;4049;49.468;11.200;2024-02-21T12:54:59;12.50;99.90
8008;DHT22;4049;49.468;11.200;2024-02-21T12:57:27;12.60;99.90
8008;DHT22;4049;49.468;11.200;2024-02-21T12:59:54;12.60;99.90
8008;DHT22;4049;49.468;11.200;2024-02-21T13:02:21;12.60;99.90
8008;DHT22;4049;49.468;11.200;2024-02-21T13:04:47;12.60;99.90
8008;DHT22;4049;49.468;11.200;2024-02-21T13:07:14;12.60;99.90
8008;DHT22;4049;49.468;11.200;2024-02-21T13:09:41;12.60;99.90
8008;DHT22;4049;49.468;11.200;2024-02-21T13:12:08;12.60;99.90
8008;DHT22;4049;49.468;11.200;2024-02-21T13:14:36;12.60;99.90
8008;DHT22;4049;49.468;11.200;2024-02-21T13:17:04;12.60;99.90
8008;DHT22;4049;49.468;11.200;2024-02-21T13:19:31;12.70;99.90
8008;DHT22;4049;49.468;11.200;2024-02-21T13:21:58;12.70;99.90
8008;DHT22;4049;49.468;11.200;2024-02-21T13:24:25;12.70;99.90
8008;DHT22;4049;49.468;11.200;2024-02-21T13:26:52;12.60;99.90
8008;DHT22;4049;49.468;11.200;2024-02-21T13:29:20;12.60;99.90
8008;DHT22;4049;49.468;11.200;2024-02-21T13:31:49;12.70;99.90
8008;DHT22;4049;49.468;11.200;2024-02-21T13:34:16;12.60;99.90
8008;DHT22;4049;49.468;11.200;2024-02-21T13:36:43;12.60;99.90
8008;DHT22;4049;49.468;11.200;2024-02-21T13:39:10;12.60;99.90
8008;DHT22;4049;49.468;11.200;2024-02-21T13:41:41;12.60;99.90
8008;DHT22;4049;49.468;11.200;2024-02-21T13:44:08;12.50;99.90
8008;DHT22;4049;49.468;11.200;2024-02-21T13:46:35;12.50;99.90
8008;DHT22;4049;49.468;11.200;2024-02-21T13:49:04;12.50;99.90
8008;DHT22;4049;49.468;11.200;2024-02-21T13:51:33;12.50;99.90
8008;DHT22;4049;49.468;11.200;2024-02-21T13:54:01;12.50;99.90
8008;DHT22;4049;49.468;11.200;2024-02-21T13:56:29;12.40;99.90
8008;DHT22;4049;49.468;11.200;2024-02-21T13:58:57;12.40;99.90
8008;DHT22;4049;49.468;11.200;2024-02-21T14:01:25;12.40;99.90
8008;DHT22;4049;49.468;11.200;2024-02-21T14:03:53;12.40;99.90
8008;DHT22;4049;49.468;11.200;2024-02-21T14:06:21;12.40;99.90
8008;DHT22;4049;49.468;11.200;2024-02-21T14:08:48;12.50;99.90
8008;DHT22;4049;49.468;11.200;2024-02-21T14:11:15;12.50;99.90
8008;DHT22;4049;49.468;11.200;2024-02-21T14:13:42;12.40;99.90
8008;DHT22;4049;49.468;11.200;2024-02-21T14:16:10;12.50;99.90
8008;DHT22;4049;49.468;11.200;2024-02-21T14:18:38;12.50;99.90
8008;DHT22;4049;49.468;11.200;2024-02-21T14:21:06;12.50;99.90
8008;DHT22;4049;49.468;11.200;2024-02-21T14:23:37;12.50;99.90
8008;DHT22;4049;49.468;11.200;2024-02-21T14:26:04;12.60;99.90
8008;DHT22;4049;49.468;11.200;2024-02-21T14:28:32;12.60;99.70
8008;DHT22;4049;49.468;11.200;2024-02-21T14:30:59;12.50;99.90
8008;DHT22;4049;49.468;11.200;2024-02-21T14:33:26;12.50;99.90
8008;DHT22;4049;49.468;11.200;2024-02-21T14:35:53;12.50;99.40
8008;DHT22;4049;49.468;11.200;2024-02-21T14:38:20;12.50;98.20
8008;DHT22;4049;49.468;11.200;2024-02-21T14:40:48;12.40;98.50
8008;DHT22;4049;49.468;11.200;2024-02-21T14:43:15;12.30;97.80
8008;DHT22;4049;49.468;11.200;2024-02-21T14:45:43;12.20;97.60
8008;DHT22;4049;49.468;11.200;2024-02-21T14:48:13;12.20;97.50
8008;DHT22;4049;49.468;11.200;2024-02-21T14:50:40;12.10;98.40
8008;DHT22;4049;49.468;11.200;2024-02-21T14:53:07;12.10;98.40
8008;DHT22;4049;49.468;11.200;2024-02-21T14:55:34;12.10;97.90
8008;DHT22;4049;49.468;11.200;2024-02-21T14:58:03;12.10;97.50
8008;DHT22;4049;49.468;11.200;2024-02-21T15:00:29;12.10;99.40
8008;DHT22;4049;49.468;11.200;2024-02-21T15:02:56;12.00;97.70
8008;DHT22;4049;49.468;11.200;2024-02-21T15:05:23;12.00;98.00
8008;DHT22;4049;49.468;11.200;2024-02-21T15:07:50;12.00;98.40
8008;DHT22;4049;49.468;11.200;2024-02-21T15:10:17;12.00;98.70
8008;DHT22;4049;49.468;11.200;2024-02-21T15:12:44;12.00;98.70
8008;DHT22;4049;49.468;11.200;2024-02-21T15:15:13;11.90;99.60
8008;DHT22;4049;49.468;11.200;2024-02-21T15:17:40;11.90;99.90
8008;DHT22;4049;49.468;11.200;2024-02-21T15:20:08;11.80;99.90
8008;DHT22;4049;49.468;11.200;2024-02-21T15:22:36;11.80;99.90
8008;DHT22;4049;49.468;11.200;2024-02-21T15:25:04;11.70;99.90
8008;DHT22;4049;49.468;11.200;2024-02-21T15:27:31;11.70;99.90
8008;DHT22;4049;49.468;11.200;2024-02-21T15:29:58;11.70;99.90
8008;DHT22;4049;49.468;11.200;2024-02-21T15:32:26;11.70;99.90
8008;DHT22;4049;49.468;11.200;2024-02-21T15:34:54;11.60;99.90
8008;DHT22;4049;49.468;11.200;2024-02-21T15:37:20;11.60;99.90
8008;DHT22;4049;49.468;11.200;2024-02-21T15:39:47;11.60;99.90
8008;DHT22;4049;49.468;11.200;2024-02-21T15:42:14;11.50;99.90
8008;DHT22;4049;49.468;11.200;2024-02-21T15:44:41;11.50;99.90
8008;DHT22;4049;49.468;11.200;2024-02-21T15:47:08;11.40;99.90
8008;DHT22;4049;49.468;11.200;2024-02-21T15:49:36;11.40;99.90
8008;DHT22;4049;49.468;11.200;2024-02-21T15:52:03;11.30;99.90
8008;DHT22;4049;49.468;11.200;2024-02-21T15:54:30;11.30;99.90
8008;DHT22;4049;49.468;11.200;2024-02-21T15:56:57;11.30;99.90
8008;DHT22;4049;49.468;11.200;2024-02-21T15:59:24;11.20;99.90